Date,TemperatureHighF,TemperatureAvgF,TemperatureLowF,DewpointHighF,DewpointAvgF,DewpointLowF,HumidityHigh,HumidityAvg,HumidityLow,PressureMaxIn,PressureMinIn,WindSpeedMaxMPH,WindSpeedAvgMPH,GustSpeedMaxMPH,PrecipitationSumIn
2012-1-1,67.0,46.5,31.0,12.0,9.4,6.0,42,25,10,30.43,30.29,8,4,10,0.00
2012-1-2,67.0,46.9,30.0,11.0,9.3,7.0,39,24,10,30.43,30.30,9,4,11,0.00
2012-1-3,67.0,47.6,32.0,13.0,10.6,9.0,40,24,11,30.41,30.31,9,4,10,0.00
2012-1-4,72.0,48.9,33.0,15.0,13.0,11.0,42,26,11,30.50,30.35,9,5,10,0.00
2012-1-5,70.0,49.4,34.0,15.0,13.7,12.0,42,26,12,30.38,30.11,7,4,11,0.00
2012-1-6,68.0,46.7,32.0,17.0,15.0,13.0,49,30,13,30.15,29.97,7,3,10,0.00
2012-1-7,64.0,49.1,31.0,18.0,11.5,1.0,50,25,10,30.23,29.99,21,9,29,0.00
2012-1-8,62.0,50.7,35.0,10.0,7.2,6.0,34,18,11,30.32,30.22,19,7,27,0.00
2012-1-9,64.0,50.7,31.0,18.0,13.7,8.0,39,24,14,30.37,30.23,9,4,12,0.00
2012-1-10,62.0,44.6,30.0,21.0,17.6,15.0,56,36,19,30.24,30.10,8,4,10,0.00
2012-1-11,64.0,44.9,33.0,21.0,16.2,10.0,55,34,15,30.21,30.09,8,5,11,0.00
2012-1-12,61.0,42.1,28.0,12.0,7.2,1.0,47,26,10,30.24,30.13,8,5,12,0.00
2012-1-13,63.0,41.4,27.0,6.0,1.6,-3.0,32,21,8,30.37,30.24,9,5,12,0.00
2012-1-14,44.0,32.3,24.0,3.0,-0.8,-3.0,30,24,18,30.31,30.12,9,5,13,0.00
2012-1-15,65.0,46.0,25.0,13.0,1.1,-3.0,29,17,8,30.12,29.91,23,10,36,0.00
2012-1-16,59.0,46.7,32.0,24.0,17.2,11.0,50,32,15,30.17,29.93,27,13,42,0.00
2012-1-17,53.0,36.2,22.0,16.0,12.2,7.0,63,40,19,30.32,30.16,8,3,11,0.00
2012-1-18,54.0,35.9,24.0,12.0,9.0,4.0,49,34,17,30.34,30.19,6,4,9,0.00
2012-1-19,68.0,49.3,25.0,25.0,3.5,-8.0,40,19,5,30.19,29.88,21,7,37,0.00
2012-1-20,67.0,57.3,38.0,46.0,23.1,9.0,58,29,17,30.09,29.88,23,6,36,0.00
2012-1-21,61.0,51.8,36.0,48.0,34.5,19.0,81,53,31,30.07,29.73,31,18,47,0.14
2012-1-22,52.0,42.1,34.0,28.0,24.5,22.0,68,51,30,30.18,30.02,13,4,20,0.00
2012-1-23,56.0,46.4,39.0,43.0,34.5,26.0,85,64,45,30.04,29.78,23,8,31,0.20
2012-1-24,61.0,46.9,36.0,34.0,30.8,24.0,85,57,26,30.38,30.03,17,4,17,0.01
2012-1-25,40.0,36.0,34.0,33.0,30.2,29.0,83,80,75,30.39,30.35,5,4,6,0.00
2012-1-28,61.0,54.5,37.0,17.0,9.1,3.0,35,18,10,30.47,30.36,8,4,11,0.00
2012-1-29,65.0,46.4,29.0,17.0,11.9,6.0,51,29,10,30.41,30.16,9,4,10,0.00
2012-1-30,61.0,51.3,29.0,19.0,13.3,7.0,49,24,12,30.16,29.98,9,3,15,0.00
2012-1-31,67.0,54.8,42.0,29.0,16.9,8.0,48,24,11,30.17,29.96,10,3,16,0.00
2012-2-1,68.0,56.0,47.0,32.0,24.7,15.0,52,32,16,30.18,29.98,21,8,32,0.00
2012-2-2,62.0,46.9,32.0,28.0,16.2,6.0,73,34,13,30.14,30.02,9,4,13,0.00
2012-2-3,57.0,44.6,29.0,14.0,9.0,6.0,40,24,15,30.20,30.09,13,7,20,0.00
2012-2-4,59.0,42.2,25.0,18.0,14.3,10.0,55,35,17,30.22,30.12,9,4,16,0.00
2012-2-5,61.0,45.2,26.0,17.0,14.9,10.0,61,33,16,30.22,30.09,12,6,16,0.00
2012-2-6,59.0,44.4,27.0,17.0,14.2,12.0,53,32,17,30.17,30.05,7,4,9,0.00
2012-2-7,57.0,45.6,40.0,40.0,24.1,13.0,87,47,17,30.15,29.98,18,4,24,0.06
2012-2-8,66.0,49.6,38.0,38.0,33.8,29.0,84,59,26,30.29,30.13,14,4,18,0.02
2012-2-9,74.0,52.8,35.0,32.0,26.7,20.0,71,43,13,30.32,30.19,8,4,11,0.00
2012-2-10,77.0,64.0,38.0,28.0,22.9,17.0,65,23,11,30.21,29.94,20,11,31,0.00
2012-2-11,65.0,57.3,45.0,35.0,29.8,24.0,52,36,25,29.96,29.80,22,9,32,0.00
2012-2-12,65.0,53.3,41.0,31.0,28.5,24.0,61,40,22,29.97,29.84,13,5,21,0.00
2012-2-13,54.0,49.7,44.0,35.0,24.4,12.0,54,38,21,29.87,29.72,31,14,50,0.00
2012-2-14,63.0,48.4,34.0,27.0,22.8,18.0,58,38,20,29.97,29.80,20,6,28,0.00
2012-2-15,53.0,44.5,32.0,34.0,23.8,15.0,75,46,25,30.06,29.86,33,14,40,0.01
2012-2-16,61.0,50.8,39.0,19.0,15.5,10.0,36,25,15,30.22,30.06,28,17,37,0.00
2012-2-17,55.0,39.2,29.0,21.0,13.2,7.0,51,36,14,30.24,30.11,8,5,10,0.00
2012-2-18,65.0,50.6,33.0,30.0,19.8,11.0,53,31,17,30.13,29.88,25,7,30,0.00
2012-2-19,62.0,52.1,41.0,29.0,20.9,13.0,47,31,17,30.04,29.88,25,9,29,0.00
2012-2-20,58.0,43.8,35.0,24.0,20.6,14.0,60,42,21,30.18,30.03,9,3,11,0.00
2012-2-21,67.0,50.1,30.0,23.0,20.7,18.0,65,35,17,30.27,30.18,7,4,12,0.00
2012-2-22,80.0,59.5,40.0,31.0,25.3,18.0,60,31,11,30.27,29.99,11,5,16,0.00
2012-2-23,49.0,46.0,43.0,30.0,26.1,22.0,49,46,36,30.02,29.95,7,4,11,0.00
2012-2-24,73.0,60.8,38.0,24.0,12.1,5.0,37,17,7,30.24,30.07,16,5,24,0.00
2012-2-25,77.0,64.3,53.0,29.0,20.8,-9.0,33,20,8,30.09,29.90,25,9,33,0.00
2012-2-26,68.0,56.0,39.0,12.0,-2.7,-11.0,32,10,4,30.04,29.78,19,6,29,0.00
2012-2-27,58.0,49.8,43.0,26.0,22.0,11.0,45,34,20,29.81,29.69,31,13,38,0.00
2012-2-28,60.0,47.0,33.0,22.0,19.3,13.0,55,34,19,30.12,29.77,25,8,31,0.00
2012-2-29,60.0,50.9,43.0,33.0,23.0,10.0,49,34,23,30.11,29.97,33,21,46,0.00
2012-3-1,64.0,54.5,43.0,29.0,20.3,14.0,45,27,15,30.05,29.85,29,15,46,0.00
2012-3-2,59.0,48.3,39.0,21.0,3.8,-10.0,41,19,6,30.37,30.05,21,9,30,0.00
2012-3-3,43.0,33.6,27.0,2.0,-3.1,-6.0,24,20,15,30.42,30.34,8,6,9,0.00
2012-3-4,76.0,55.0,33.0,16.0,9.5,1.0,28,17,9,30.35,30.11,7,4,10,0.00
2012-3-5,79.0,60.5,37.0,20.0,15.0,9.0,42,20,8,30.15,29.91,16,7,23,0.00
2012-3-6,63.0,54.2,39.0,30.0,17.6,-2.0,38,24,14,29.91,29.61,33,17,48,0.00
2012-3-7,53.0,39.9,33.0,2.0,-3.8,-7.0,25,16,8,30.22,29.85,28,14,40,0.00
2012-3-8,68.0,52.1,32.0,7.0,1.5,-5.0,26,13,7,30.40,30.22,10,5,17,0.00
2012-3-9,76.0,54.5,33.0,9.0,2.5,-3.0,23,13,5,30.40,30.10,10,4,11,0.00
2012-3-10,80.0,62.6,37.0,15.0,8.9,-3.0,34,14,6,30.09,29.85,21,8,33,0.00
2012-3-11,75.0,65.9,56.0,29.0,23.4,17.0,32,21,12,29.92,29.83,23,17,33,0.00
2012-3-12,75.0,60.2,50.0,32.0,25.7,11.0,47,29,9,29.99,29.88,26,14,35,0.00
2012-3-13,71.0,58.8,50.0,34.0,27.8,13.0,54,34,11,29.97,29.90,26,15,37,0.00
2012-3-14,76.0,62.9,53.0,34.0,30.0,25.0,46,30,16,30.06,29.95,22,13,36,0.00
2012-3-15,80.0,61.5,45.0,39.0,32.8,28.0,53,36,20,30.13,29.96,22,6,31,0.00
2012-3-16,72.0,63.0,55.0,41.0,35.4,29.0,54,36,23,29.98,29.77,26,13,35,0.00
2012-3-17,57.0,48.5,39.0,45.0,37.3,28.0,85,66,44,29.77,29.50,31,17,42,0.16
2012-3-18,53.0,43.6,36.0,29.0,19.9,11.0,74,41,19,29.76,29.53,26,15,44,0.01
2012-3-19,59.0,46.2,34.0,25.0,15.8,8.0,55,31,16,30.01,29.72,22,6,37,0.00
2012-3-20,70.0,52.5,31.0,31.0,20.2,-99.9,70,34,12,30.21,30.01,10,4,14,0.00
2012-3-21,79.0,59.7,39.0,33.0,29.2,23.0,72,37,16,30.16,29.96,15,5,19,0.00
2012-3-22,85.0,64.2,46.0,39.0,26.6,-99.9,49,27,9,29.99,29.80,24,0,37,0.00
2012-3-23,78.0,63.2,54.0,42.0,30.5,12.0,60,34,9,29.98,29.87,21,13,30,0.00
2012-3-24,76.0,59.9,40.0,31.0,21.9,15.0,40,25,11,29.97,29.80,20,8,25,0.00
2012-3-25,65.0,51.3,40.0,46.0,32.9,22.0,82,52,26,29.86,29.71,29,13,39,0.07
2012-3-26,66.0,51.9,40.0,33.0,28.9,23.0,71,44,23,30.05,29.81,23,14,33,0.03
2012-3-27,72.0,55.4,42.0,31.0,25.0,15.0,60,35,12,30.07,29.92,19,8,32,0.00
2012-3-28,72.0,61.0,52.0,37.0,30.7,27.0,42,32,21,30.01,29.91,17,9,27,0.00
2012-3-29,77.0,59.8,44.0,39.0,34.0,30.0,67,41,20,30.08,29.92,6,3,11,0.00
2012-3-30,74.0,58.0,45.0,39.0,36.7,35.0,68,47,26,30.05,29.87,15,4,21,0.00
2012-3-31,77.0,63.9,48.0,39.0,31.5,19.0,47,32,13,29.91,29.78,30,17,40,0.00
2012-4-1,67.0,55.3,45.0,30.0,19.2,7.0,56,27,14,30.09,29.83,19,9,30,0.00
2012-4-2,74.0,57.7,42.0,25.0,13.8,8.0,38,19,9,30.15,29.95,25,6,32,0.00
2012-4-3,81.0,71.3,57.0,29.0,21.9,16.0,23,16,11,30.10,29.88,17,7,24,0.00
2012-4-4,79.0,65.2,53.0,32.0,21.6,-4.0,39,22,4,29.96,29.80,27,13,35,0.00
2012-4-5,64.0,53.1,45.0,25.0,13.2,2.0,33,21,8,30.01,29.80,26,11,37,0.00
2012-4-6,64.0,48.7,32.0,9.0,0.1,-5.0,26,14,7,30.25,30.01,15,4,22,0.00
2012-4-7,76.0,52.0,30.0,1.0,-3.2,-8.0,22,12,4,30.22,30.06,9,4,12,0.00
2012-4-8,86.0,74.0,56.0,13.0,2.0,-6.0,14,7,3,30.14,29.98,15,7,21,0.00
2012-4-9,85.0,65.7,45.0,11.0,4.7,0.0,23,10,4,30.06,29.89,18,7,27,0.00
2012-4-10,81.0,65.0,44.0,17.0,3.5,-10.0,17,9,3,29.94,29.71,26,10,35,0.00
2012-4-11,65.0,55.1,49.0,36.0,29.8,13.0,58,39,16,29.98,29.75,32,17,40,0.00
2012-4-12,69.0,55.4,47.0,32.0,24.9,15.0,44,32,15,30.04,29.93,27,14,40,0.00
2012-4-13,55.0,48.0,42.0,41.0,33.7,24.0,85,59,35,29.98,29.58,32,14,40,0.19
2012-4-14,64.0,52.2,44.0,32.0,25.0,-99.9,49,36,23,30.03,29.60,19,9,30,0.19
2012-4-15,75.0,65.2,49.0,36.0,29.4,23.0,51,28,14,30.17,30.02,17,5,27,0.00
2012-4-16,81.0,63.2,42.0,36.0,30.5,22.0,71,36,11,30.24,30.06,15,5,21,0.00
2012-4-17,85.0,68.2,51.0,37.0,31.4,23.0,57,29,13,30.13,29.96,19,5,25,0.00
2012-4-18,89.0,71.2,55.0,40.0,32.9,24.0,43,26,14,30.01,29.83,12,4,21,0.00
2012-4-19,92.0,74.1,55.0,44.0,36.7,26.0,57,30,11,30.08,29.93,7,4,14,0.00
2012-4-20,94.0,78.7,59.0,44.0,36.5,32.0,48,25,12,30.13,29.96,16,5,20,0.00
2012-4-21,99.0,80.8,60.0,39.0,34.8,24.0,44,23,8,30.06,29.90,11,4,18,0.00
2012-4-22,100.0,82.7,63.0,43.0,33.8,24.0,37,20,7,30.01,29.85,13,5,25,0.00
2012-4-23,96.0,79.9,62.0,50.0,40.6,31.0,52,28,11,29.95,29.79,20,8,28,0.00
2012-4-24,90.0,73.0,57.0,50.0,42.7,30.0,70,39,14,30.02,29.88,17,7,24,0.00
2012-4-25,86.0,76.1,63.0,44.0,37.4,27.0,48,25,17,30.00,29.79,25,11,31,0.00
2012-4-26,71.0,62.7,54.0,51.0,42.1,28.0,83,50,27,29.93,29.80,38,14,57,0.08
2012-4-27,82.0,66.2,46.0,36.0,31.9,26.0,59,30,13,30.13,29.93,14,4,24,0.00
2012-4-28,86.0,69.2,53.0,37.0,27.7,-99.9,51,26,9,30.01,29.80,14,5,19,0.00
2012-4-29,90.0,73.0,52.0,35.0,26.6,17.0,44,21,8,29.98,29.85,19,6,24,0.00
2012-4-30,93.0,76.5,56.0,34.0,29.3,17.0,36,19,7,29.98,29.77,26,7,34,0.00
2012-5-1,91.0,79.6,72.0,36.0,30.3,23.0,27,17,10,29.78,29.62,36,9,46,0.00
2012-5-2,90.0,73.5,55.0,39.0,32.1,23.0,50,24,9,29.85,29.68,17,6,30,0.00
2012-5-3,85.0,70.0,57.0,36.0,30.2,24.0,34,24,13,29.95,29.79,24,9,44,0.00
2012-5-4,87.0,71.3,59.0,34.0,26.9,17.0,34,20,10,30.01,29.87,22,7,31,0.00
2012-5-5,81.0,68.3,55.0,29.0,16.7,-99.9,28,16,6,30.10,29.94,27,8,34,0.00
2012-5-6,61.0,61.0,61.0,27.0,27.0,27.0,27,27,27,29.99,29.99,2,2,3,0.00
2012-5-10,77.0,76.0,74.0,27.0,25.5,22.0,16,15,13,29.78,29.75,19,8,28,0.00
2012-5-11,96.0,79.5,62.0,28.0,22.3,16.0,24,13,6,29.94,29.78,19,6,26,0.00
2012-5-12,91.0,73.0,57.0,32.0,23.5,-99.9,29,18,6,30.07,29.92,15,4,20,0.00
2012-5-13,100.0,81.8,58.0,35.0,22.8,9.0,33,15,4,30.11,29.94,14,5,22,0.00
2012-5-14,97.0,81.2,67.0,37.0,20.3,-19.0,28,14,1,30.05,29.85,25,11,33,0.00
2012-5-15,94.0,82.8,65.0,31.0,13.4,-9.0,21,9,2,29.93,29.83,13,4,23,0.00
2012-5-17,85.0,78.3,75.0,27.0,24.7,20.0,16,14,9,29.75,29.72,21,15,35,0.00
2012-5-18,91.0,79.6,69.0,34.0,25.0,16.0,23,14,7,29.87,29.78,19,7,27,0.00
2012-5-19,90.0,70.3,54.0,35.0,28.1,18.0,47,25,7,30.00,29.85,7,3,18,0.00
2012-5-20,84.0,81.8,79.0,33.0,31.8,30.0,19,17,14,29.97,29.94,9,3,13,0.00
2012-5-21,103.0,85.1,66.0,38.0,30.6,17.0,28,16,5,30.00,29.89,23,8,30,0.00
2012-5-22,103.0,86.9,74.0,41.0,31.8,23.0,24,15,6,29.93,29.70,32,10,46,0.00
2012-5-23,94.0,83.6,71.0,36.0,29.8,23.0,21,15,10,29.77,29.57,26,10,38,0.00
2012-5-24,90.0,76.3,63.0,34.0,28.0,18.0,28,18,7,29.75,29.48,31,11,44,0.00
2012-5-26,72.0,70.1,69.0,29.0,24.9,20.0,22,18,15,29.84,29.80,22,15,0,0.00
2012-5-31,95.0,88.6,80.0,31.0,27.2,25.0,14,11,9,29.87,29.85,11,4,24,0.00
2012-6-1,107.0,88.5,66.0,33.0,26.6,19.0,26,12,5,29.90,29.73,17,4,26,0.00
2012-6-2,104.0,89.0,74.0,42.0,31.1,-99.9,24,14,7,29.81,29.71,16,5,26,0.00
2012-6-3,103.0,86.9,67.0,44.0,37.5,24.0,42,20,7,29.91,29.77,13,5,22,0.00
2012-6-4,96.0,80.2,67.0,45.0,38.2,34.0,40,24,12,29.91,29.80,22,9,36,0.00
2012-6-5,84.0,69.6,58.0,40.0,22.9,10.0,39,19,7,29.92,29.80,25,11,38,0.00
2012-6-6,87.0,71.3,54.0,30.0,20.5,14.0,30,16,7,29.98,29.83,19,5,25,0.00
2012-6-7,97.0,77.9,57.0,34.0,24.4,14.0,33,17,6,29.97,29.83,18,6,26,0.00
2012-6-8,79.0,76.3,75.0,40.0,34.4,29.0,26,22,18,29.85,29.70,16,7,31,0.00
2012-6-9,98.0,81.9,68.0,38.0,29.8,23.0,25,16,8,29.76,29.65,16,5,31,0.00
2012-6-10,64.0,64.0,64.0,6.0,6.0,6.0,10,10,10,29.96,29.96,6,6,7,0.00
2012-6-11,100.0,87.8,64.0,27.0,13.3,3.0,13,7,4,30.03,29.91,15,5,19,0.00
2012-6-12,104.0,86.1,65.0,27.0,21.5,12.0,22,11,4,30.00,29.83,19,7,32,0.00
2012-6-13,102.0,85.8,64.0,38.0,24.6,11.0,22,12,4,29.86,29.70,19,6,30,0.00
2012-6-14,101.0,84.2,67.0,46.0,36.5,23.0,35,20,7,29.82,29.72,18,6,29,0.00
2012-6-15,99.0,84.9,67.0,45.0,36.5,23.0,43,21,7,29.85,29.73,12,4,25,0.00
2012-6-16,102.0,86.1,64.0,39.0,27.5,-99.9,33,15,6,29.97,29.84,17,7,24,0.00
2012-6-17,105.0,87.2,63.0,33.0,19.9,7.0,21,10,4,30.04,29.85,22,8,33,0.00
2012-6-18,104.0,89.8,80.0,36.0,27.5,13.0,19,11,4,29.89,29.68,27,16,42,0.00
2012-6-19,93.0,84.1,79.0,29.0,23.7,21.0,14,11,8,29.79,29.72,12,5,18,0.00
2012-6-20,101.0,90.8,85.0,38.0,34.8,25.0,18,14,7,29.81,29.76,14,8,20,0.00
2012-6-21,104.0,88.1,73.0,39.0,34.3,27.0,27,16,8,29.87,29.77,21,10,34,0.00
2012-6-22,96.0,83.6,72.0,34.0,24.8,17.0,21,12,6,29.81,29.70,26,11,38,0.00
2012-6-23,92.0,80.4,70.0,42.0,31.8,20.0,30,18,9,29.85,29.72,29,14,40,0.00
2012-6-24,97.0,79.4,65.0,42.0,27.4,-8.0,42,21,2,29.97,29.85,26,12,37,0.00
2012-6-25,96.0,78.6,63.0,39.0,30.2,17.0,39,20,6,30.00,29.86,27,14,35,0.00
2012-6-26,97.0,78.7,62.0,36.0,30.3,20.0,35,19,7,29.94,29.77,24,10,33,0.00
2012-6-27,99.0,80.5,62.0,39.0,28.2,-4.0,42,19,2,29.94,29.83,26,8,33,0.00
2012-6-28,103.0,84.8,69.0,36.0,27.6,7.0,29,15,3,30.06,29.94,24,10,32,0.00
2012-6-29,102.0,84.5,65.0,35.0,27.8,10.0,27,15,4,30.04,29.91,27,9,34,0.00
2012-6-30,102.0,84.3,62.0,40.0,34.7,28.0,38,19,8,29.98,29.79,16,6,30,0.00
2012-7-1,101.0,82.8,63.0,49.0,39.5,31.0,39,23,10,29.89,29.74,21,6,30,0.00
2012-7-2,101.0,83.3,63.0,49.0,41.9,17.0,53,28,5,29.91,29.79,16,5,26,0.00
2012-7-3,102.0,86.2,68.0,48.0,38.7,21.0,45,22,6,29.93,29.78,18,7,29,0.00
2012-7-4,93.0,82.8,72.0,54.0,44.2,39.0,36,26,18,29.96,29.84,18,9,27,0.00
2012-7-5,100.0,86.2,72.0,47.0,38.8,27.0,34,21,8,30.00,29.88,19,10,25,0.00
2012-7-6,97.0,81.8,69.0,44.0,37.8,22.0,37,23,7,30.06,29.95,15,5,22,0.00
2012-7-9,111.0,100.2,78.0,39.0,31.2,21.0,17,9,5,30.04,29.90,16,6,24,0.00
2012-7-10,112.0,96.4,78.0,41.0,37.1,34.0,26,14,7,30.00,29.84,18,7,29,0.00
2012-7-11,115.0,97.3,76.0,39.0,35.7,29.0,25,13,6,29.95,29.81,14,5,20,0.00
2012-7-12,107.0,93.7,85.0,53.0,39.6,32.0,30,16,10,29.98,29.83,24,8,33,0.00
2012-7-13,96.0,86.1,80.0,59.0,52.6,34.0,40,32,20,30.06,29.91,16,6,20,0.00
2012-7-14,103.0,86.7,66.0,51.0,36.1,21.0,45,19,6,30.04,29.85,21,7,28,0.00
2012-7-15,100.0,84.9,70.0,38.0,27.9,0.0,26,15,3,30.01,29.84,19,8,27,0.00
2012-7-16,98.0,81.1,63.0,39.0,24.0,-6.0,35,16,2,29.96,29.80,23,10,35,0.00
2012-7-17,95.0,79.1,63.0,45.0,34.2,24.0,38,22,9,29.97,29.87,30,10,35,0.00
2012-7-18,95.0,79.4,64.0,46.0,34.0,16.0,47,24,6,30.05,29.96,16,8,27,0.00
2012-7-19,102.0,86.9,69.0,42.0,37.4,31.0,28,18,11,30.07,29.88,20,7,29,0.00
2012-7-20,104.0,89.2,71.0,45.0,39.7,30.0,33,19,8,30.09,29.97,14,7,25,0.00
2012-7-21,107.0,92.3,72.0,46.0,42.2,38.0,33,19,11,30.06,29.89,14,6,26,0.00
2012-7-22,108.0,94.7,79.0,49.0,46.3,44.0,32,20,13,30.02,29.87,14,6,22,0.00
2012-7-23,105.0,92.8,81.0,50.0,46.4,41.0,28,21,12,30.03,29.89,24,10,35,0.00
2012-7-24,104.0,89.0,73.0,43.0,23.4,6.0,27,12,3,30.02,29.87,23,11,33,0.00
2012-7-25,105.0,85.8,65.0,33.0,17.6,-15.0,21,11,1,30.04,29.88,20,7,31,0.00
2012-7-26,102.0,85.3,65.0,36.0,24.8,6.0,24,13,3,30.01,29.89,19,7,28,0.00
2012-7-27,104.0,85.9,71.0,36.0,29.6,7.0,26,16,3,30.02,29.88,20,8,27,0.00
2012-7-28,103.0,85.1,61.0,35.0,31.3,21.0,34,16,6,30.05,29.91,15,6,21,0.00
2012-7-29,106.0,85.0,63.0,35.0,24.0,-1.0,30,14,2,30.07,29.92,11,4,18,0.00
2012-7-30,107.0,90.3,72.0,41.0,31.9,23.0,25,14,6,30.03,29.88,16,5,27,0.00
2012-7-31,101.0,86.8,69.0,58.0,45.7,37.0,42,25,14,30.11,29.95,16,5,24,0.00
2012-8-1,99.0,86.7,71.0,60.0,52.7,33.0,68,35,15,30.18,29.97,14,6,24,0.00
2012-8-2,108.0,92.1,73.0,49.0,40.2,33.0,28,17,10,30.07,29.87,15,4,22,0.00
2012-8-3,107.0,91.9,74.0,49.0,36.7,28.0,27,15,9,29.95,29.78,23,5,31,0.00
2012-8-4,104.0,95.3,83.0,49.0,44.5,41.0,24,18,13,29.97,29.90,13,8,24,0.00
2012-8-5,107.0,91.1,72.0,47.0,39.9,29.0,41,19,7,30.07,29.97,16,5,20,0.00
2012-8-6,107.0,92.1,73.0,45.0,39.1,30.0,36,18,7,30.15,29.99,14,5,22,0.00
2012-8-7,109.0,93.4,74.0,43.0,39.4,35.0,28,16,9,30.09,29.92,15,5,22,0.00
2012-8-8,111.0,96.6,81.0,45.0,41.9,40.0,25,16,10,30.06,29.91,16,7,22,0.00
2012-8-9,112.0,97.5,79.0,46.0,42.5,39.0,28,16,9,30.03,29.88,26,8,34,0.00
2012-8-10,111.0,97.6,84.0,48.0,43.4,40.0,24,16,10,29.97,29.79,17,5,32,0.00
2012-8-11,110.0,93.7,78.0,50.0,42.4,-99.9,28,19,10,29.93,29.83,24,7,33,0.00
2012-8-12,99.0,93.7,88.0,50.0,47.9,46.0,27,21,17,29.94,29.87,13,4,25,0.00
2012-8-13,109.0,89.6,78.0,63.0,50.6,43.0,53,29,12,30.01,29.88,18,4,29,0.00
2012-8-14,107.0,83.9,72.0,58.0,50.9,41.0,53,36,11,29.97,29.83,11,5,15,0.00
2012-8-15,108.0,92.4,74.0,47.0,40.9,27.0,38,20,6,29.94,29.80,18,6,27,0.00
2012-8-16,108.0,92.5,73.0,49.0,39.2,33.0,33,17,8,30.00,29.88,15,5,22,0.00
2012-8-17,104.0,90.0,82.0,49.0,43.3,36.0,31,20,12,30.05,29.91,20,8,26,0.00
2012-8-18,105.0,94.2,81.0,52.0,46.3,42.0,28,20,15,30.01,29.84,21,7,30,0.00
2012-8-19,106.0,92.0,77.0,52.0,47.2,43.0,32,22,14,30.01,29.82,15,5,27,0.00
2012-8-20,107.0,91.4,74.0,48.0,44.7,42.0,35,21,13,29.99,29.82,19,6,27,0.00
2012-8-21,106.0,91.8,79.0,44.0,40.1,34.0,28,18,10,29.96,29.82,25,8,33,0.00
2012-8-22,94.0,82.5,70.0,66.0,47.6,36.0,78,34,18,30.01,29.87,20,7,28,0.12
2012-8-23,98.0,81.7,64.0,63.0,50.9,40.0,79,42,17,30.04,29.87,8,3,18,0.02
2012-8-24,103.0,88.0,71.0,46.0,41.7,39.0,35,21,13,29.99,29.83,12,4,19,0.00
2012-8-25,103.0,89.0,75.0,45.0,41.2,35.0,30,20,11,29.92,29.78,16,7,26,0.00
2012-8-26,100.0,84.2,66.0,44.0,30.9,5.0,42,19,3,29.99,29.84,19,7,28,0.00
2012-8-27,103.0,84.0,63.0,29.0,21.1,12.0,21,12,4,30.09,29.97,16,6,23,0.00
2012-8-28,107.0,87.3,65.0,40.0,29.4,21.0,21,13,7,30.07,29.89,16,6,24,0.00
2012-8-29,106.0,92.3,81.0,46.0,41.5,37.0,23,18,12,29.97,29.85,28,8,34,0.00
2012-8-30,85.0,81.4,78.0,56.0,45.8,39.0,41,29,20,29.91,29.85,18,7,30,0.00
2012-8-31,101.0,84.7,70.0,54.0,38.1,26.0,45,22,7,29.97,29.84,23,10,33,0.00
2012-9-1,99.0,81.1,65.0,34.0,27.6,18.0,28,16,6,30.01,29.89,18,9,26,0.00
2012-9-2,92.0,73.2,58.0,30.0,27.1,24.0,28,19,9,30.06,29.97,12,4,16,0.00
2012-9-3,97.0,89.6,83.0,38.0,29.0,14.0,14,12,5,30.03,29.94,19,11,27,0.00
2012-9-4,104.0,89.5,75.0,40.0,32.6,25.0,20,14,9,30.10,29.94,19,6,25,0.00
2012-9-5,93.0,82.9,76.0,50.0,38.1,33.0,33,21,14,30.05,29.98,14,4,19,0.00
2012-9-6,100.0,84.4,71.0,51.0,48.2,46.0,48,30,16,30.01,29.91,22,7,30,0.00
2012-9-7,102.0,86.9,72.0,51.0,48.1,45.0,46,28,15,30.10,29.98,13,3,23,0.00
2012-9-8,105.0,88.1,73.0,52.0,47.7,46.0,41,26,14,30.09,29.92,22,5,28,0.00
2012-9-9,104.0,88.8,75.0,55.0,48.3,40.0,47,27,13,30.03,29.89,17,6,21,0.00
2012-9-10,102.0,86.7,74.0,58.0,48.6,45.0,39,28,16,30.00,29.83,25,7,34,0.00
2012-9-11,95.0,82.6,70.0,56.0,48.5,34.0,57,33,13,30.04,29.87,19,6,30,0.00
2012-9-12,94.0,79.4,63.0,55.0,46.8,38.0,63,36,15,30.15,30.03,12,4,17,0.00
2012-9-13,96.0,80.2,61.0,39.0,28.9,19.0,38,18,7,30.23,30.11,12,5,18,0.00
2012-9-14,99.0,79.6,59.0,33.0,24.9,19.0,23,14,8,30.22,30.09,13,5,19,0.00
2012-9-15,99.0,81.9,63.0,31.0,27.0,20.0,26,15,7,30.21,30.05,10,5,15,0.00
2012-9-16,99.0,83.4,64.0,33.0,29.8,24.0,28,16,7,30.14,29.96,19,5,26,0.00
2012-9-17,97.0,83.3,67.0,33.0,29.5,23.0,28,15,8,30.09,29.96,12,4,19,0.00
2012-9-18,91.0,73.7,63.0,33.0,30.1,28.0,28,21,11,30.13,30.02,7,3,9,0.00
2012-9-19,99.0,90.6,77.0,34.0,31.5,30.0,21,13,9,30.09,29.99,11,4,16,0.00
2012-9-20,96.0,76.1,65.0,36.0,33.5,31.0,30,22,11,30.10,30.01,6,2,7,0.00
2012-9-21,99.0,83.0,65.0,37.0,33.5,30.0,34,19,9,30.06,29.92,16,5,21,0.00
2012-9-22,92.0,89.8,86.0,36.0,35.5,35.0,16,15,14,30.04,30.02,3,2,4,0.00
2012-9-24,81.0,79.6,79.0,22.0,20.0,15.0,11,11,10,29.87,29.86,22,15,30,0.00
2012-9-25,90.0,76.8,61.0,32.0,27.1,15.0,29,17,9,29.97,29.85,10,3,15,0.00
2012-9-26,93.0,75.4,60.0,31.0,28.5,26.0,30,19,11,29.99,29.88,9,3,15,0.00
2012-9-27,93.0,75.8,58.0,34.0,30.2,26.0,31,20,12,30.06,29.93,11,4,31,0.00
2012-9-28,94.0,77.4,62.0,37.0,32.2,29.0,33,20,12,30.04,29.91,10,4,13,0.00
2012-9-29,95.0,77.6,61.0,36.0,31.6,23.0,40,21,8,30.12,29.99,9,3,16,0.00
2012-9-30,98.0,79.3,61.0,34.0,29.0,22.0,35,18,8,30.16,30.05,13,4,17,0.00
2012-10-1,101.0,80.6,64.0,30.0,25.6,20.0,26,15,6,30.15,29.98,11,4,13,0.00
2012-10-2,83.0,68.7,60.0,32.0,27.1,26.0,28,22,13,30.02,29.90,11,5,14,0.00
2012-10-3,83.0,77.2,65.0,38.0,32.0,26.0,24,19,13,29.99,29.92,16,7,28,0.00
2012-10-4,95.0,76.5,59.0,37.0,32.6,25.0,41,22,11,30.09,29.95,13,2,19,0.00
2012-10-5,93.0,75.3,58.0,35.0,30.8,27.0,34,21,10,30.09,29.93,14,4,21,0.00
2012-10-6,92.0,73.1,55.0,36.0,31.1,26.0,44,24,11,30.01,29.86,13,3,19,0.00
2012-10-7,87.0,70.2,50.0,40.0,32.1,27.0,46,26,13,30.01,29.88,12,4,17,0.00
2012-10-8,87.0,68.5,57.0,37.0,34.1,24.0,43,30,10,30.00,29.91,19,6,26,0.00
2012-10-9,82.0,68.3,53.0,38.0,31.3,23.0,54,26,15,29.99,29.89,15,6,24,0.00
2012-10-10,79.0,64.4,51.0,37.0,32.4,21.0,51,33,14,30.01,29.87,14,6,22,0.00
2012-10-11,72.0,61.4,52.0,41.0,37.7,32.0,63,43,24,29.94,29.83,27,7,38,0.00
2012-10-12,71.0,63.6,55.0,46.0,40.7,39.0,66,44,31,30.15,29.93,11,4,20,0.00
2012-10-13,79.0,61.1,45.0,43.0,39.1,34.0,75,48,24,30.28,30.13,6,3,11,0.00
2012-10-14,85.0,66.6,49.0,37.0,33.3,27.0,57,33,14,30.27,30.10,8,4,11,0.00
2012-10-15,88.0,68.3,53.0,35.0,31.1,27.0,43,27,13,30.14,29.96,8,4,12,0.00
2012-10-16,93.0,71.2,52.0,44.0,34.2,28.0,49,29,11,30.03,29.83,10,4,14,0.00
2012-10-17,89.0,72.7,54.0,42.0,32.4,26.0,48,25,13,30.04,29.89,12,4,16,0.00
2012-10-18,89.0,69.6,53.0,30.0,24.8,17.0,37,21,8,30.16,30.04,8,4,12,0.00
2012-10-19,91.0,71.2,50.0,46.0,29.2,21.0,39,24,10,30.09,29.88,11,4,15,0.00
2012-10-20,89.0,70.7,57.0,43.0,40.0,36.0,56,35,17,29.91,29.67,19,4,27,0.00
2012-10-21,82.0,70.4,60.0,44.0,36.1,15.0,54,30,14,29.82,29.71,23,8,32,0.00
2012-10-22,74.0,64.3,56.0,42.0,29.1,10.0,58,29,12,29.92,29.79,27,15,35,0.00
2012-10-23,68.0,58.7,52.0,41.0,28.1,22.0,54,32,18,29.92,29.81,27,14,38,0.00
2012-10-24,72.0,59.4,50.0,30.0,24.4,18.0,38,27,13,30.08,29.88,22,10,33,0.00
2012-10-25,70.0,54.3,38.0,25.0,21.3,16.0,49,29,16,30.19,30.08,7,2,12,0.00
2012-10-26,70.0,56.7,44.0,26.0,23.0,20.0,43,29,16,30.32,30.16,10,4,16,0.00
2012-10-28,65.0,60.3,58.0,22.0,17.7,16.0,21,19,17,30.09,30.06,10,6,13,0.00
2012-10-29,83.0,64.0,46.0,25.0,19.7,15.0,33,20,10,30.19,30.06,8,4,11,0.00
2012-10-30,84.0,62.8,45.0,25.0,18.8,14.0,34,20,9,30.16,30.01,9,4,11,0.00
2012-10-31,84.0,63.8,44.0,21.0,16.7,12.0,33,18,7,30.11,29.94,14,6,21,0.00
2012-11-1,82.0,67.8,59.0,34.0,22.4,12.0,36,19,8,30.00,29.88,23,8,31,0.00
2012-11-2,78.0,61.5,48.0,36.0,28.2,16.0,60,32,12,30.07,29.95,7,4,13,0.00
2012-11-3,81.0,60.2,44.0,29.0,22.8,15.0,45,27,11,30.19,30.03,8,4,11,0.00
2012-11-4,81.0,63.3,46.0,23.0,19.3,16.0,33,20,10,30.29,30.18,9,4,13,0.00
2012-11-5,86.0,71.9,51.0,28.0,21.1,12.0,27,16,9,30.29,30.15,9,4,14,0.00
2012-11-6,86.0,66.7,51.0,28.0,24.6,22.0,34,22,11,30.22,30.07,9,3,11,0.00
2012-11-7,86.0,67.1,48.0,30.0,25.9,23.0,40,23,11,30.11,29.88,18,6,25,0.00
2012-11-8,76.0,64.0,51.0,39.0,32.1,28.0,61,32,18,29.90,29.72,21,12,34,0.00
2012-11-9,55.0,49.3,43.0,35.0,21.7,5.0,57,35,19,29.86,29.75,22,12,33,0.00
2012-11-10,54.0,45.6,36.0,21.0,14.0,5.0,49,29,19,30.15,29.85,19,9,34,0.00
2012-11-11,55.0,40.0,26.0,14.0,9.7,3.0,51,30,18,30.42,30.15,7,3,11,0.00
2012-11-12,60.0,41.8,25.0,8.0,4.4,-4.0,43,23,10,30.42,30.25,7,4,10,0.00
2012-11-13,66.0,46.1,29.0,8.0,1.9,-3.0,28,17,8,30.32,30.16,7,4,11,0.00
2012-11-14,67.0,47.5,30.0,11.0,5.8,-99.9,33,19,11,30.24,30.11,7,4,9,0.00
2012-11-15,67.0,54.1,43.0,35.0,14.4,8.0,47,22,11,30.20,30.07,6,3,12,0.00
2012-11-16,67.0,56.6,47.0,45.0,36.1,30.0,74,47,33,30.12,30.03,14,6,19,0.00
2012-11-17,69.0,58.9,50.0,49.0,46.0,43.0,81,63,43,30.09,29.97,24,14,34,0.00
2012-11-18,70.0,59.1,51.0,45.0,36.8,31.0,77,46,25,30.12,30.00,23,13,34,0.00
2012-11-19,68.0,53.4,43.0,39.0,33.7,28.0,69,49,28,30.28,30.11,10,4,19,0.00
2012-11-20,72.0,54.3,38.0,35.0,32.5,28.0,74,47,25,30.25,30.05,14,6,20,0.00
2012-11-21,70.0,55.3,41.0,32.0,30.0,28.0,62,40,23,30.10,29.98,10,3,13,0.00
2012-11-22,71.0,53.5,40.0,34.0,28.3,22.0,72,42,20,30.28,30.10,8,4,14,0.00
2012-11-23,75.0,55.4,38.0,25.0,21.3,18.0,48,30,12,30.35,30.22,9,3,10,0.00
2012-11-25,71.0,57.5,41.0,25.0,16.4,12.0,32,21,14,30.03,29.90,8,4,10,0.00
2012-11-26,71.0,50.8,36.0,19.0,14.6,10.0,40,25,13,30.19,30.02,9,4,10,0.00
2012-11-27,67.0,51.3,37.0,22.0,17.2,13.0,43,27,15,30.24,30.11,7,4,9,0.00
2012-11-28,72.0,56.6,39.0,43.0,30.4,19.0,65,39,16,30.17,30.01,31,9,44,0.00
2012-11-29,68.0,60.3,52.0,46.0,42.2,38.0,79,53,33,30.13,30.05,22,10,32,0.00
2012-11-30,71.0,61.7,56.0,49.0,41.0,27.0,62,48,20,30.10,29.98,24,14,33,0.00
2012-12-1,68.0,61.9,55.0,48.0,41.1,33.0,65,47,34,30.09,30.00,22,14,33,0.00
2012-12-2,71.0,61.4,53.0,47.0,43.3,38.0,65,52,32,30.04,29.88,25,14,41,0.00
2012-12-3,68.0,58.1,46.0,45.0,38.7,29.0,66,50,31,30.24,30.02,18,6,25,0.00
2012-12-4,66.0,52.6,40.0,41.0,35.7,27.0,75,54,39,30.34,30.22,10,3,13,0.00
2012-12-5,63.0,50.4,39.0,39.0,34.5,30.0,77,56,36,30.22,30.03,9,2,13,0.00
2012-12-6,73.0,51.7,40.0,41.0,33.7,-99.9,74,54,28,30.06,29.92,9,3,13,0.00
2012-12-7,71.0,51.9,38.0,37.0,27.9,19.0,79,46,15,30.12,30.00,7,4,11,0.00
2012-12-8,67.0,48.6,35.0,27.0,20.5,13.0,66,38,14,30.07,29.94,7,4,10,0.00
2012-12-9,67.0,49.2,36.0,21.0,17.3,14.0,49,30,15,30.25,30.01,11,5,14,0.00
2012-12-10,66.0,48.9,34.0,23.0,18.6,15.0,50,32,19,30.32,30.14,9,3,12,0.00
2012-12-11,57.0,54.3,51.0,22.0,20.6,19.0,29,26,25,29.92,29.88,18,10,22,0.00
2012-12-12,62.0,52.7,46.0,38.0,30.4,21.0,67,44,22,29.88,29.76,29,13,40,0.00
2012-12-13,55.0,46.6,41.0,40.0,36.1,32.0,87,68,46,29.82,29.72,14,6,18,0.01
2012-12-14,52.0,42.5,31.0,37.0,26.2,21.0,87,55,30,29.90,29.69,23,7,33,0.00
2012-12-15,54.0,41.9,27.0,27.0,20.4,16.0,73,44,22,30.02,29.87,17,4,27,0.00
2012-12-16,52.0,38.6,26.0,25.0,21.7,17.0,68,52,34,30.12,30.01,6,3,10,0.00
2012-12-17,64.0,45.5,28.0,38.0,29.4,20.0,84,57,28,30.08,29.88,29,8,43,0.00
2012-12-18,53.0,47.5,37.0,39.0,23.5,3.0,71,41,20,29.97,29.68,30,15,42,0.00
2012-12-19,47.0,36.6,24.0,8.0,0.1,-8.0,34,22,12,30.40,29.97,16,7,25,0.00
2012-12-20,47.0,30.3,16.0,2.0,-3.5,-8.0,37,24,13,30.40,30.22,7,4,11,0.00
2012-12-21,49.0,31.1,16.0,6.0,1.4,-5.0,46,29,16,30.23,30.08,7,4,10,0.00
2012-12-22,58.0,40.6,23.0,37.0,16.8,3.0,61,40,17,30.13,30.01,17,6,25,0.00
2012-12-23,59.0,51.3,42.0,39.0,33.1,27.0,70,50,30,30.08,29.96,27,13,39,0.00
2012-12-24,63.0,52.5,37.0,43.0,28.6,16.0,81,43,19,30.17,29.89,22,10,37,0.06
2012-12-25,50.0,39.9,28.0,23.0,15.9,6.0,70,43,16,30.21,30.00,11,5,15,0.01
2012-12-26,55.0,47.4,37.0,34.0,24.6,15.0,76,43,21,29.90,29.77,25,10,41,0.00
2012-12-27,52.0,42.3,32.0,25.0,18.4,11.0,67,40,21,30.14,29.89,17,7,23,0.00
2012-12-28,50.0,37.7,21.0,18.0,14.3,11.0,68,40,23,30.24,30.10,7,3,13,0.00
2012-12-29,48.0,36.8,24.0,32.0,19.9,12.0,70,52,29,30.11,29.97,9,4,13,0.00
2012-12-30,47.0,37.4,24.0,26.0,20.8,11.0,84,54,31,30.07,29.92,24,8,35,0.00
2012-12-31,51.0,37.7,22.0,15.0,9.6,6.0,60,33,17,30.26,30.07,24,6,31,0.00
2013-1-1,48.0,35.3,25.0,15.0,9.4,1.0,61,37,19,30.32,30.21,11,4,15,0.00